Time;durP1;ratioP1;P1;durP2;ratioP2;P2;SDS_P1;SDS_P2;PMS_P1;PMS_P2;Temp;Humidity;BMP_temperature;BMP_pressure;BME280_temperature;BME280_humidity;BME280_pressure;Samples;Min_cycle;Max_cycle;Signal;HPM_P1;HPM_P2
2021/07/02 00:00:11;;;;;;;6.73;5.17;;;16.30;99.90;;;;;;5034571;28;20204;-82
2021/07/02 00:02:37;;;;;;;6.30;4.93;;;16.40;99.90;;;;;;5031966;28;20216;-79
2021/07/02 00:05:04;;;;;;;6.97;4.87;;;16.30;99.90;;;;;;5036170;28;20782;-80
2021/07/02 00:07:29;;;;;;;6.40;5.30;;;16.30;99.90;;;;;;5034489;28;20195;-80
2021/07/02 00:09:55;;;;;;;9.83;5.80;;;16.40;99.90;;;;;;5044923;28;20435;-80
2021/07/02 00:12:20;;;;;;;9.07;6.33;;;16.40;99.90;;;;;;5023949;28;20570;-79
2021/07/02 00:14:46;;;;;;;7.50;5.60;;;16.30;99.90;;;;;;5030954;28;20189;-79
2021/07/02 00:17:12;;;;;;;7.80;5.47;;;16.30;99.90;;;;;;5026952;28;20189;-81
2021/07/02 00:19:37;;;;;;;6.43;5.50;;;16.40;99.90;;;;;;5039589;28;20265;-82
2021/07/02 00:22:03;;;;;;;8.20;5.70;;;16.20;99.90;;;;;;5031357;28;20216;-81
2021/07/02 00:24:29;;;;;;;8.93;6.50;;;16.30;99.90;;;;;;5040727;28;20180;-81
2021/07/02 00:26:55;;;;;;;9.53;5.63;;;16.30;99.90;;;;;;5042261;28;20446;-82
2021/07/02 00:29:20;;;;;;;8.47;6.13;;;16.30;99.90;;;;;;5043427;28;20210;-80
2021/07/02 00:31:46;;;;;;;6.37;4.87;;;16.20;99.90;;;;;;5041988;28;20196;-80
2021/07/02 00:34:15;;;;;;;8.77;5.70;;;16.20;99.90;;;;;;5040969;28;20204;-80
2021/07/02 00:36:40;;;;;;;7.40;5.53;;;16.10;99.90;;;;;;5047433;28;20237;-81
2021/07/02 00:39:07;;;;;;;6.33;5.43;;;16.10;99.90;;;;;;5040356;28;20533;-79
2021/07/02 00:41:34;;;;;;;10.77;6.10;;;16.10;99.90;;;;;;5052200;28;20207;-80
2021/07/02 00:43:59;;;;;;;6.60;5.20;;;16.10;99.90;;;;;;5047115;28;20443;-80
2021/07/02 00:46:25;;;;;;;7.83;5.80;;;16.10;99.90;;;;;;5047362;28;20546;-79
2021/07/02 00:48:51;;;;;;;7.63;5.53;;;15.90;99.90;;;;;;5053243;28;20187;-80
2021/07/02 00:51:17;;;;;;;9.13;6.10;;;16.00;99.90;;;;;;5043065;28;20196;-79
2021/07/02 00:53:44;;;;;;;8.77;6.20;;;16.00;99.90;;;;;;5028186;28;20444;-81
2021/07/02 00:56:17;;;;;;;8.97;6.53;;;16.00;99.90;;;;;;5041874;28;20243;-82
2021/07/02 00:58:43;;;;;;;8.87;6.67;;;15.90;99.90;;;;;;5048505;28;20447;-81
2021/07/02 01:01:17;;;;;;;9.90;7.13;;;15.80;99.90;;;;;;5044087;28;20443;-80
2021/07/02 01:03:44;;;;;;;7.30;5.93;;;15.90;99.90;;;;;;5041563;28;20321;-83
2021/07/02 01:06:15;;;;;;;8.83;6.63;;;16.00;99.90;;;;;;5044084;28;20846;-83
2021/07/02 01:08:42;;;;;;;8.43;5.50;;;16.20;99.90;;;;;;5043301;28;20472;-82
2021/07/02 01:11:08;;;;;;;7.80;6.07;;;16.20;99.90;;;;;;5041996;28;21049;-81
2021/07/02 01:13:34;;;;;;;8.40;5.30;;;16.10;99.90;;;;;;5045333;28;20423;-81
2021/07/02 01:16:00;;;;;;;6.57;5.60;;;16.10;99.90;;;;;;5039416;28;20473;-82
2021/07/02 01:18:26;;;;;;;9.90;5.80;;;16.00;99.90;;;;;;5039685;28;20632;-82
2021/07/02 01:20:53;;;;;;;9.43;6.10;;;15.90;99.90;;;;;;5035456;28;20180;-81
2021/07/02 01:23:19;;;;;;;7.10;5.90;;;15.90;99.90;;;;;;5037396;28;20483;-83
2021/07/02 01:25:46;;;;;;;7.10;5.60;;;16.00;99.90;;;;;;5039722;28;20520;-82
2021/07/02 01:28:14;;;;;;;8.43;6.30;;;16.00;99.90;;;;;;5033569;28;20430;-82
2021/07/02 01:30:41;;;;;;;10.23;6.17;;;16.00;99.90;;;;;;5036341;28;20435;-82
2021/07/02 01:33:10;;;;;;;10.13;5.67;;;15.80;99.90;;;;;;5038968;28;20439;-79
2021/07/02 01:35:36;;;;;;;10.00;5.70;;;15.90;99.90;;;;;;5032399;28;20451;-82
2021/07/02 01:38:03;;;;;;;6.43;5.27;;;16.00;99.90;;;;;;5041704;28;20453;-81
2021/07/02 01:40:30;;;;;;;7.17;6.13;;;15.90;99.90;;;;;;5036914;28;20250;-81
2021/07/02 01:42:56;;;;;;;7.87;5.67;;;15.90;99.90;;;;;;5039293;28;20467;-82
2021/07/02 01:45:22;;;;;;;7.23;5.50;;;16.00;99.90;;;;;;5043681;28;20456;-81
2021/07/02 01:47:47;;;;;;;7.47;5.33;;;16.00;99.90;;;;;;5055699;28;20297;-82
2021/07/02 01:50:13;;;;;;;7.53;5.40;;;15.90;99.90;;;;;;5039587;28;20196;-83
2021/07/02 01:52:39;;;;;;;8.80;5.50;;;15.90;99.90;;;;;;5044598;28;20486;-82
2021/07/02 01:55:05;;;;;;;9.87;6.60;;;15.80;99.90;;;;;;5040018;28;20443;-81
2021/07/02 01:57:31;;;;;;;6.57;5.77;;;15.90;99.90;;;;;;5039292;28;20218;-82
2021/07/02 01:59:56;;;;;;;8.27;6.23;;;15.90;99.90;;;;;;5034670;28;20473;-78
2021/07/02 02:02:23;;;;;;;7.23;5.13;;;15.90;99.90;;;;;;5035242;28;20519;-81
2021/07/02 02:04:49;;;;;;;6.00;5.10;;;15.90;99.90;;;;;;5034538;28;20195;-80
2021/07/02 02:07:14;;;;;;;6.83;5.60;;;15.80;99.90;;;;;;5033680;28;21032;-83
2021/07/02 02:09:40;;;;;;;17.50;6.77;;;15.70;99.90;;;;;;5034357;28;20249;-79
2021/07/02 02:12:06;;;;;;;8.43;6.30;;;15.70;99.90;;;;;;5036417;28;20226;-80
2021/07/02 02:14:32;;;;;;;6.43;5.00;;;15.60;99.90;;;;;;5034670;28;20652;-80
2021/07/02 02:16:58;;;;;;;9.30;6.30;;;15.60;99.90;;;;;;5036120;28;20479;-83
2021/07/02 02:19:24;;;;;;;7.33;5.53;;;15.70;99.90;;;;;;5034930;28;20205;-81
2021/07/02 02:21:51;;;;;;;7.00;6.30;;;15.70;99.90;;;;;;5030327;28;20477;-80
2021/07/02 02:24:17;;;;;;;11.67;6.10;;;15.70;99.90;;;;;;5041322;28;20438;-81
2021/07/02 02:26:44;;;;;;;10.03;5.80;;;15.70;99.90;;;;;;5033174;28;20516;-82
2021/07/02 02:29:10;;;;;;;6.20;5.50;;;15.70;99.90;;;;;;5031283;28;20440;-81
2021/07/02 02:31:35;;;;;;;7.60;5.70;;;15.80;99.90;;;;;;5032575;28;20483;-81
2021/07/02 02:34:01;;;;;;;8.17;5.50;;;15.70;99.90;;;;;;5031784;28;20634;-82
2021/07/02 02:36:27;;;;;;;10.97;5.90;;;15.80;99.90;;;;;;5030477;28;20213;-81
2021/07/02 02:38:53;;;;;;;6.70;5.80;;;15.70;99.90;;;;;;5035186;28;20423;-81
2021/07/02 02:41:20;;;;;;;7.60;6.00;;;15.60;99.90;;;;;;5037460;28;20782;-82
2021/07/02 02:43:46;;;;;;;9.73;6.70;;;15.60;99.90;;;;;;5037077;28;20191;-82
2021/07/02 02:46:11;;;;;;;6.70;5.90;;;15.60;99.90;;;;;;5033511;28;20442;-82
2021/07/02 02:48:37;;;;;;;9.53;7.10;;;15.70;99.90;;;;;;5034811;28;20548;-81
2021/07/02 02:51:03;;;;;;;7.50;6.03;;;15.60;99.90;;;;;;5034892;28;20195;-80
2021/07/02 02:53:29;;;;;;;7.53;5.80;;;15.50;99.90;;;;;;5051971;28;20184;-83
2021/07/02 02:55:55;;;;;;;7.87;5.43;;;15.50;99.90;;;;;;5036946;28;20679;-83
2021/07/02 02:58:21;;;;;;;8.50;5.47;;;15.50;99.90;;;;;;5034792;28;20423;-81
2021/07/02 03:00:46;;;;;;;9.97;6.67;;;15.30;99.90;;;;;;5035442;28;20503;-80
2021/07/02 03:03:12;;;;;;;8.23;6.17;;;15.30;99.90;;;;;;5035479;28;20201;-83
2021/07/02 03:05:38;;;;;;;8.50;5.90;;;15.30;99.90;;;;;;5038043;28;20231;-82
2021/07/02 03:08:04;;;;;;;7.60;6.30;;;15.30;99.90;;;;;;5034263;28;20189;-81
2021/07/02 03:10:30;;;;;;;9.00;6.63;;;15.30;99.90;;;;;;5037509;28;20214;-80
2021/07/02 03:12:56;;;;;;;7.77;6.63;;;15.30;99.90;;;;;;5038712;28;20433;-80
2021/07/02 03:15:22;;;;;;;9.50;6.50;;;15.30;99.90;;;;;;5034450;28;21435;-83
2021/07/02 03:17:48;;;;;;;6.87;5.37;;;15.40;99.90;;;;;;5037575;28;20496;-82
2021/07/02 03:20:14;;;;;;;7.03;5.77;;;15.50;99.90;;;;;;5039570;28;20536;-82
2021/07/02 03:22:43;;;;;;;8.00;6.30;;;15.40;99.90;;;;;;5039217;28;20471;-82
2021/07/02 03:25:10;;;;;;;12.13;5.97;;;15.50;99.90;;;;;;5030691;28;20439;-81
2021/07/02 03:27:36;;;;;;;7.73;5.93;;;15.50;99.90;;;;;;5035863;28;20434;-81
2021/07/02 03:30:05;;;;;;;7.90;5.90;;;15.50;99.90;;;;;;5036326;28;20446;-79
2021/07/02 03:32:31;;;;;;;8.67;6.10;;;15.40;99.90;;;;;;5039622;28;20775;-79
2021/07/02 03:34:56;;;;;;;10.13;6.73;;;15.40;99.90;;;;;;5041624;28;20487;-79
2021/07/02 03:37:22;;;;;;;9.20;7.00;;;15.40;99.90;;;;;;5042384;28;20188;-82
2021/07/02 03:39:48;;;;;;;10.00;6.73;;;15.40;99.90;;;;;;5039839;28;20200;-81
2021/07/02 03:42:13;;;;;;;12.00;7.10;;;15.50;99.90;;;;;;5043753;28;20219;-80
2021/07/02 03:44:39;;;;;;;9.03;7.67;;;15.40;99.90;;;;;;5039593;28;20353;-83
2021/07/02 03:47:06;;;;;;;11.67;6.60;;;15.50;99.90;;;;;;5029359;28;20276;-82
2021/07/02 03:49:31;;;;;;;8.87;7.23;;;15.40;99.90;;;;;;5031113;28;20584;-81
2021/07/02 03:51:57;;;;;;;8.10;6.50;;;15.40;99.90;;;;;;5030717;28;20443;-80
2021/07/02 03:54:23;;;;;;;12.30;7.57;;;15.30;99.90;;;;;;5025316;28;20691;-80
2021/07/02 03:59:33;;;;;;;9.30;6.70;;;15.40;99.90;;;;;;5035994;28;20203;-81
2021/07/02 04:01:59;;;;;;;11.23;7.47;;;15.30;99.90;;;;;;5028999;28;21002;-83
2021/07/02 04:04:24;;;;;;;10.03;7.30;;;15.30;99.90;;;;;;5018840;28;20464;-83
2021/07/02 04:06:50;;;;;;;10.80;6.90;;;15.40;99.90;;;;;;5032540;28;20235;-81
2021/07/02 04:09:16;;;;;;;11.57;7.30;;;15.40;99.90;;;;;;5031137;28;20189;-80
2021/07/02 04:11:42;;;;;;;10.10;7.20;;;15.40;99.90;;;;;;5031723;28;20219;-81
2021/07/02 04:14:08;;;;;;;9.60;6.00;;;15.40;99.90;;;;;;5033129;28;20188;-82
2021/07/02 04:16:33;;;;;;;9.43;7.13;;;15.40;99.90;;;;;;5031967;28;20203;-80
2021/07/02 04:19:00;;;;;;;10.70;7.20;;;15.40;99.90;;;;;;5034246;28;20520;-81
2021/07/02 04:21:26;;;;;;;8.43;6.50;;;15.40;99.90;;;;;;5033629;28;20562;-82
2021/07/02 04:23:51;;;;;;;14.93;8.57;;;15.50;99.90;;;;;;5033381;28;20452;-82
2021/07/02 04:26:17;;;;;;;7.50;6.70;;;15.40;99.90;;;;;;5027830;28;20448;-83
2021/07/02 04:28:43;;;;;;;11.10;6.83;;;15.50;99.90;;;;;;5031543;28;20184;-81
2021/07/02 04:31:09;;;;;;;8.83;6.90;;;15.40;99.90;;;;;;5026519;28;20262;-82
2021/07/02 04:33:34;;;;;;;9.67;6.50;;;15.30;99.90;;;;;;5033477;28;20654;-81
2021/07/02 04:36:00;;;;;;;9.57;7.40;;;15.30;99.90;;;;;;5044698;28;20212;-82
2021/07/02 04:38:26;;;;;;;8.43;6.30;;;15.30;99.90;;;;;;5039497;28;20198;-80
2021/07/02 04:40:52;;;;;;;8.87;6.00;;;15.30;99.90;;;;;;5041250;28;20189;-80
2021/07/02 04:43:18;;;;;;;11.47;7.47;;;15.30;99.90;;;;;;5041186;28;20521;-79
2021/07/02 04:45:43;;;;;;;10.17;7.03;;;15.30;99.90;;;;;;5040396;28;20201;-81
2021/07/02 04:48:09;;;;;;;14.03;7.83;;;15.20;99.90;;;;;;5023464;28;20452;-81
2021/07/02 04:50:35;;;;;;;7.87;6.30;;;15.30;99.90;;;;;;5035166;28;20188;-84
2021/07/02 04:53:01;;;;;;;9.53;7.20;;;15.30;99.90;;;;;;5029132;28;20399;-80
2021/07/02 04:55:27;;;;;;;11.40;8.40;;;15.30;99.90;;;;;;5023261;28;20204;-82
2021/07/02 04:57:53;;;;;;;9.63;7.47;;;15.30;99.90;;;;;;5022476;28;20461;-81
2021/07/02 05:00:18;;;;;;;9.73;8.17;;;15.20;99.90;;;;;;5022969;28;20608;-81
2021/07/02 05:02:45;;;;;;;10.70;6.80;;;15.20;99.90;;;;;;5022188;28;20474;-81
2021/07/02 05:05:11;;;;;;;17.77;8.27;;;15.30;99.90;;;;;;5023544;28;20588;-82
2021/07/02 05:07:37;;;;;;;13.00;8.67;;;15.30;99.90;;;;;;5020034;28;20440;-81
2021/07/02 05:10:04;;;;;;;9.50;7.90;;;15.40;99.90;;;;;;5025567;28;20440;-80
2021/07/02 05:12:31;;;;;;;12.20;8.00;;;15.40;99.90;;;;;;5026381;28;20431;-81
2021/07/02 05:14:57;;;;;;;10.33;6.90;;;15.40;99.90;;;;;;5029425;28;20522;-80
2021/07/02 05:17:23;;;;;;;10.07;7.53;;;15.40;99.90;;;;;;5027179;28;20440;-80
2021/07/02 05:19:49;;;;;;;11.60;7.20;;;15.40;99.90;;;;;;5024816;28;20443;-82
2021/07/02 05:22:19;;;;;;;10.53;7.53;;;15.40;99.90;;;;;;5028566;28;20631;-82
2021/07/02 05:24:49;;;;;;;10.97;7.20;;;15.50;99.90;;;;;;5027423;28;20181;-81
2021/07/02 05:27:16;;;;;;;15.13;7.20;;;15.50;99.90;;;;;;5027400;28;20532;-81
2021/07/02 05:29:42;;;;;;;9.90;7.13;;;15.60;99.90;;;;;;5025078;28;20447;-81
2021/07/02 05:32:08;;;;;;;8.63;7.23;;;15.50;99.90;;;;;;5026932;28;20435;-82
2021/07/02 05:34:34;;;;;;;8.83;6.87;;;15.50;99.90;;;;;;5026356;28;20427;-81
2021/07/02 05:37:01;;;;;;;15.50;8.20;;;15.60;99.90;;;;;;5025921;28;20448;-81
2021/07/02 05:39:26;;;;;;;10.97;7.70;;;15.60;99.90;;;;;;5024479;28;21635;-81
2021/07/02 05:41:52;;;;;;;9.77;7.30;;;15.70;99.90;;;;;;5028757;28;20749;-80
2021/07/02 05:44:18;;;;;;;10.90;8.37;;;15.70;99.90;;;;;;5026873;28;20189;-82
2021/07/02 05:46:44;;;;;;;8.93;7.20;;;15.80;99.90;;;;;;5031313;28;20212;-81
2021/07/02 05:49:10;;;;;;;12.17;7.50;;;15.80;99.90;;;;;;5042305;28;20196;-80
2021/07/02 05:51:36;;;;;;;12.33;7.90;;;15.80;99.90;;;;;;5038755;28;20185;-82
2021/07/02 05:54:02;;;;;;;10.23;7.80;;;15.90;99.90;;;;;;5041207;28;20442;-81
2021/07/02 05:56:28;;;;;;;11.37;7.30;;;15.90;99.90;;;;;;5030651;28;20205;-84
2021/07/02 05:58:59;;;;;;;9.87;7.60;;;15.90;99.90;;;;;;5046096;28;20188;-83
2021/07/02 06:01:25;;;;;;;9.83;8.30;;;15.90;99.90;;;;;;5038780;28;20478;-80
2021/07/02 06:03:52;;;;;;;11.37;8.00;;;16.00;99.90;;;;;;5033426;28;20431;-80
2021/07/02 06:06:21;;;;;;;13.20;7.57;;;16.10;99.90;;;;;;5026105;28;20565;-79
2021/07/02 06:08:47;;;;;;;12.40;7.90;;;16.20;99.90;;;;;;5027462;28;20525;-78
2021/07/02 06:11:13;;;;;;;11.37;8.33;;;16.30;99.90;;;;;;5026694;28;20443;-78
2021/07/02 06:13:39;;;;;;;10.33;7.10;;;16.40;99.90;;;;;;5029383;28;20453;-79
2021/07/02 06:16:05;;;;;;;14.07;8.33;;;16.40;99.90;;;;;;5027373;28;20212;-80
2021/07/02 06:18:31;;;;;;;11.77;8.03;;;16.40;99.90;;;;;;5024721;28;20447;-81
2021/07/02 06:20:57;;;;;;;9.70;7.53;;;16.30;99.90;;;;;;5031744;28;20503;-83
2021/07/02 06:23:24;;;;;;;10.57;8.40;;;16.30;99.90;;;;;;5023931;28;20474;-82
2021/07/02 06:25:50;;;;;;;9.70;8.10;;;16.40;99.90;;;;;;5034219;28;20455;-85
2021/07/02 06:28:17;;;;;;;11.00;7.60;;;16.40;99.90;;;;;;5030818;28;20494;-81
2021/07/02 06:30:43;;;;;;;11.63;7.70;;;16.40;99.90;;;;;;5029992;28;20530;-81
2021/07/02 06:33:10;;;;;;;9.13;7.80;;;16.50;99.90;;;;;;5032557;28;20469;-80
2021/07/02 06:35:36;;;;;;;11.10;7.77;;;16.40;99.90;;;;;;5031735;28;20459;-81
2021/07/02 06:38:02;;;;;;;10.97;7.03;;;16.40;99.90;;;;;;5034188;28;20562;-81
2021/07/02 06:40:28;;;;;;;8.43;6.50;;;16.40;99.90;;;;;;5028537;28;20772;-82
2021/07/02 06:42:54;;;;;;;7.90;6.50;;;16.50;99.90;;;;;;5035309;28;20474;-81
2021/07/02 06:45:23;;;;;;;10.67;8.00;;;16.60;99.90;;;;;;5027477;28;20223;-82
2021/07/02 06:47:57;;;;;;;10.43;7.50;;;16.70;99.90;;;;;;5032395;28;20452;-81
2021/07/02 06:50:28;;;;;;;10.23;7.57;;;16.80;99.90;;;;;;5021253;28;20481;-80
2021/07/02 06:52:55;;;;;;;13.23;8.23;;;17.00;99.90;;;;;;5036921;28;20439;-79
2021/07/02 06:55:21;;;;;;;12.73;7.30;;;17.10;99.90;;;;;;5033397;28;20454;-80
2021/07/02 06:57:46;;;;;;;9.87;8.00;;;17.20;99.90;;;;;;5035520;28;20438;-80
2021/07/02 07:00:13;;;;;;;9.97;7.53;;;17.30;99.90;;;;;;5030906;28;20431;-83
2021/07/02 07:02:39;;;;;;;8.27;7.40;;;17.50;99.90;;;;;;5038631;28;20258;-81
2021/07/02 07:05:05;;;;;;;9.00;6.83;;;17.50;99.90;;;;;;5036090;28;20679;-81
2021/07/02 07:07:31;;;;;;;10.90;7.00;;;17.50;99.90;;;;;;5017937;28;20176;-81
2021/07/02 07:09:56;;;;;;;9.00;6.70;;;17.50;99.90;;;;;;5032163;28;20495;-80
2021/07/02 07:12:22;;;;;;;14.43;8.00;;;17.50;99.90;;;;;;5017186;28;20193;-81
2021/07/02 07:14:48;;;;;;;9.20;7.17;;;17.50;99.90;;;;;;5019482;28;20266;-80
2021/07/02 07:17:14;;;;;;;12.70;7.30;;;17.50;99.90;;;;;;5039420;28;20216;-85
2021/07/02 07:19:39;;;;;;;9.10;6.63;;;17.60;99.90;;;;;;5037666;28;20195;-83
2021/07/02 07:22:05;;;;;;;11.63;7.07;;;17.60;99.90;;;;;;5042189;28;20277;-83
2021/07/02 07:24:31;;;;;;;11.53;7.80;;;17.60;99.90;;;;;;5034501;28;20188;-82
2021/07/02 07:26:58;;;;;;;11.23;8.10;;;17.70;99.90;;;;;;5036482;28;20205;-85
2021/07/02 07:29:24;;;;;;;11.90;8.60;;;17.60;99.90;;;;;;5031483;28;20211;-84
2021/07/02 07:31:51;;;;;;;9.23;7.50;;;17.60;99.90;;;;;;5036019;28;20439;-83
2021/07/02 07:34:37;;;;;;;9.80;7.57;;;17.60;99.90;;;;;;5034333;28;21049;-83
2021/07/02 07:37:09;;;;;;;9.17;7.40;;;17.70;99.90;;;;;;5041506;28;20816;-81
2021/07/02 07:39:35;;;;;;;10.07;7.93;;;17.70;99.90;;;;;;5015250;28;20449;-83
2021/07/02 07:42:01;;;;;;;10.90;7.80;;;17.70;99.90;;;;;;5040214;28;20492;-80
2021/07/02 07:44:27;;;;;;;14.37;7.03;;;17.80;99.90;;;;;;5015339;28;20427;-83
2021/07/02 07:46:55;;;;;;;10.50;8.43;;;17.90;99.90;;;;;;5036486;28;20216;-85
2021/07/02 07:49:20;;;;;;;9.10;7.00;;;17.90;99.90;;;;;;5034257;28;20188;-83
2021/07/02 07:54:15;;;;;;;9.33;7.00;;;17.90;99.90;;;;;;5035676;28;20200;-83
2021/07/02 07:56:50;;;;;;;8.90;6.97;;;17.90;99.90;;;;;;5040894;28;20743;-83
2021/07/02 07:59:16;;;;;;;9.27;6.20;;;18.00;99.90;;;;;;5040760;28;20193;-85
2021/07/02 08:01:42;;;;;;;9.90;7.60;;;18.10;99.90;;;;;;5044474;28;20431;-82
2021/07/02 08:04:08;;;;;;;9.40;7.30;;;18.10;99.90;;;;;;5031333;28;20435;-82
2021/07/02 08:06:34;;;;;;;9.10;7.03;;;18.20;99.90;;;;;;5049272;28;20204;-81
2021/07/02 08:08:59;;;;;;;12.97;6.97;;;18.20;99.90;;;;;;5048220;28;20439;-81
2021/07/02 08:11:25;;;;;;;8.50;6.60;;;18.20;99.90;;;;;;5045539;28;21471;-83
2021/07/02 08:13:51;;;;;;;7.80;7.00;;;18.20;99.90;;;;;;5043010;28;20188;-81
2021/07/02 08:16:16;;;;;;;9.50;7.33;;;18.30;99.90;;;;;;5039381;28;20215;-84
2021/07/02 08:18:44;;;;;;;8.00;5.93;;;18.40;99.90;;;;;;5036143;28;20918;-81
2021/07/02 08:21:10;;;;;;;7.93;6.40;;;18.40;99.90;;;;;;5035733;28;20207;-82
2021/07/02 08:23:36;;;;;;;7.20;6.47;;;18.30;99.90;;;;;;5035123;28;20497;-82
2021/07/02 08:26:05;;;;;;;12.67;8.90;;;18.40;99.90;;;;;;5035212;28;20994;-83
2021/07/02 08:31:15;;;;;;;10.17;6.77;;;18.60;99.90;;;;;;5032236;28;20458;-84
2021/07/02 08:33:41;;;;;;;7.47;6.77;;;18.70;99.90;;;;;;4997952;28;20452;-79
2021/07/02 08:36:09;;;;;;;8.17;6.93;;;18.70;99.90;;;;;;5034215;28;20211;-81
2021/07/02 08:38:35;;;;;;;7.43;6.70;;;18.80;99.90;;;;;;5030141;28;20192;-83
2021/07/02 08:41:02;;;;;;;8.70;7.07;;;18.90;99.90;;;;;;5031805;28;20817;-83
2021/07/02 08:43:28;;;;;;;9.90;7.70;;;18.90;99.90;;;;;;5033404;28;20473;-84
2021/07/02 08:45:54;;;;;;;8.83;7.53;;;19.00;99.90;;;;;;5034075;28;20467;-84
2021/07/02 08:48:22;;;;;;;7.80;7.00;;;19.00;99.90;;;;;;5035321;28;20189;-84
2021/07/02 08:50:51;;;;;;;9.40;7.20;;;19.10;99.90;;;;;;5035258;28;20481;-83
2021/07/02 08:53:17;;;;;;;10.53;6.83;;;19.10;99.90;;;;;;5031712;28;20522;-83
2021/07/02 08:55:42;;;;;;;7.77;6.70;;;19.10;99.90;;;;;;5039431;28;20554;-84
2021/07/02 08:58:15;;;;;;;9.33;7.90;;;19.10;99.90;;;;;;5037686;28;20194;-81
2021/07/02 09:00:42;;;;;;;8.07;6.90;;;19.20;99.90;;;;;;5039333;28;20200;-82
2021/07/02 09:03:31;;;;;;;8.83;7.33;;;19.20;99.90;;;;;;5039109;28;20524;-85
2021/07/02 09:06:13;;;;;;;9.70;6.30;;;19.30;99.90;;;;;;5038576;28;20489;-80
2021/07/02 09:08:56;;;;;;;7.30;6.60;;;19.40;99.90;;;;;;5040010;28;20442;-85
2021/07/02 09:11:36;;;;;;;7.03;5.80;;;19.40;99.90;;;;;;5041909;28;20434;-83
2021/07/02 09:14:04;;;;;;;8.40;7.10;;;19.60;99.90;;;;;;5043546;28;20436;-83
2021/07/02 09:16:40;;;;;;;7.83;6.67;;;19.60;99.90;;;;;;5043359;28;20455;-84
2021/07/02 09:19:20;;;;;;;13.90;7.70;;;19.70;99.90;;;;;;5038848;28;20458;-82
2021/07/02 09:21:46;;;;;;;9.90;6.40;;;19.90;99.90;;;;;;5037676;28;20419;-83
2021/07/02 09:24:39;;;;;;;13.03;7.90;;;19.90;99.90;;;;;;5038328;28;20504;-84
2021/07/02 09:27:26;;;;;;;9.27;7.20;;;20.00;99.90;;;;;;5029734;28;20462;-84
2021/07/02 09:30:19;;;;;;;11.70;5.90;;;20.10;99.90;;;;;;5031485;28;20427;-82
2021/07/02 09:32:57;;;;;;;9.20;7.43;;;20.40;99.90;;;;;;5038131;28;20483;-85
2021/07/02 09:35:31;;;;;;;7.10;6.40;;;20.50;99.90;;;;;;5037399;28;20577;-82
2021/07/02 09:37:58;;;;;;;8.00;6.70;;;20.60;99.90;;;;;;5036173;28;20442;-80
2021/07/02 09:40:26;;;;;;;9.00;6.90;;;20.80;99.90;;;;;;5036908;28;20530;-83
2021/07/02 09:43:03;;;;;;;8.40;7.20;;;20.90;99.90;;;;;;5038080;28;20467;-83
2021/07/02 09:45:30;;;;;;;12.70;7.47;;;20.90;99.90;;;;;;5040634;28;20460;-84
2021/07/02 09:48:04;;;;;;;8.03;6.83;;;20.60;99.90;;;;;;5036884;28;20473;-81
2021/07/02 09:50:30;;;;;;;9.33;7.00;;;20.50;99.90;;;;;;5045913;28;21026;-80
2021/07/02 09:53:00;;;;;;;8.70;6.90;;;20.60;99.90;;;;;;5044809;28;20496;-82
2021/07/02 09:55:27;;;;;;;6.53;5.90;;;20.70;99.90;;;;;;5048363;28;20235;-80
2021/07/02 09:58:08;;;;;;;8.57;6.50;;;20.80;99.90;;;;;;5048887;28;20482;-79
2021/07/02 10:00:39;;;;;;;7.33;6.50;;;21.10;99.90;;;;;;5045732;28;20441;-84
2021/07/02 10:03:06;;;;;;;9.63;7.27;;;21.10;99.90;;;;;;5048896;28;20452;-82
2021/07/02 10:05:47;;;;;;;7.40;6.57;;;20.90;99.90;;;;;;5036478;28;20457;-80
2021/07/02 10:08:13;;;;;;;7.63;6.50;;;20.90;99.90;;;;;;5045032;28;20429;-80
2021/07/02 10:10:39;;;;;;;8.90;6.80;;;21.10;99.90;;;;;;5043703;28;20811;-82
2021/07/02 10:13:05;;;;;;;7.70;7.00;;;21.20;99.90;;;;;;5041626;28;20789;-83
2021/07/02 10:15:32;;;;;;;7.80;6.67;;;21.30;99.90;;;;;;5040561;28;20447;-83
2021/07/02 10:17:59;;;;;;;8.60;6.97;;;21.40;99.90;;;;;;5037854;28;20427;-84
2021/07/02 10:20:30;;;;;;;6.53;5.93;;;21.70;99.90;;;;;;5038275;28;20450;-84
2021/07/02 10:22:58;;;;;;;8.70;6.83;;;21.50;99.90;;;;;;5039893;28;20478;-83
2021/07/02 10:25:26;;;;;;;7.33;5.73;;;21.40;99.90;;;;;;5035379;28;20456;-83
2021/07/02 10:27:52;;;;;;;10.53;7.20;;;21.30;99.90;;;;;;5042600;28;20514;-83
2021/07/02 10:30:19;;;;;;;9.50;6.80;;;21.20;99.90;;;;;;5025232;28;20537;-85
2021/07/02 10:32:46;;;;;;;7.30;6.30;;;21.20;99.90;;;;;;5038620;28;20439;-85
2021/07/02 10:35:15;;;;;;;7.13;6.43;;;21.30;99.90;;;;;;5035891;28;20450;-84
2021/07/02 10:37:47;;;;;;;8.30;6.77;;;21.40;99.90;;;;;;5034487;28;20440;-85
2021/07/02 10:40:30;;;;;;;8.50;7.47;;;21.70;99.90;;;;;;5049298;28;20459;-86
2021/07/02 10:43:09;;;;;;;7.83;7.03;;;21.90;99.90;;;;;;5037607;28;20470;-84
2021/07/02 10:45:36;;;;;;;7.57;6.77;;;22.00;99.90;;;;;;5033967;28;20548;-84
2021/07/02 10:48:03;;;;;;;7.87;7.07;;;21.90;99.90;;;;;;5031207;28;20510;-81
2021/07/02 10:50:41;;;;;;;7.30;6.30;;;21.90;99.90;;;;;;5035552;28;20909;-86
2021/07/02 10:53:27;;;;;;;7.43;6.30;;;22.00;99.90;;;;;;5032704;28;20431;-79
2021/07/02 10:55:54;;;;;;;10.53;7.40;;;22.10;99.90;;;;;;5037140;28;20454;-85
2021/07/02 10:58:22;;;;;;;7.90;7.10;;;22.10;99.90;;;;;;5032150;28;20447;-84
2021/07/02 11:01:24;;;;;;;8.13;7.10;;;22.30;99.90;;;;;;5017617;28;20450;-87
2021/07/02 11:03:50;;;;;;;8.10;7.30;;;22.50;99.90;;;;;;5014850;28;20471;-84
2021/07/02 11:06:39;;;;;;;7.83;6.93;;;22.50;99.90;;;;;;5040575;28;21546;-82
2021/07/02 11:09:08;;;;;;;11.70;6.57;;;22.60;99.90;;;;;;5038071;28;20414;-80
2021/07/02 11:12:07;;;;;;;9.50;7.20;;;22.60;99.90;;;;;;5040552;28;20431;-82
2021/07/02 11:14:33;;;;;;;10.73;6.90;;;22.60;99.90;;;;;;5020895;28;20435;-82
2021/07/02 11:17:42;;;;;;;7.50;6.70;;;22.50;99.90;;;;;;5030849;28;20475;-82
2021/07/02 11:20:26;;;;;;;8.47;6.40;;;22.50;99.90;;;;;;4948939;28;20619;-80
2021/07/02 11:23:16;;;;;;;8.10;6.13;;;22.70;99.90;;;;;;4958919;28;20506;-82
2021/07/02 11:26:02;;;;;;;7.10;6.40;;;23.20;99.90;;;;;;5023104;28;20454;-83
2021/07/02 11:28:41;;;;;;;7.10;6.40;;;23.30;99.90;;;;;;5044536;28;20439;-80
2021/07/02 11:31:09;;;;;;;8.40;7.60;;;23.20;99.90;;;;;;5040029;28;20439;-81
2021/07/02 11:33:35;;;;;;;8.20;6.67;;;23.40;99.90;;;;;;5034791;28;20440;-83
2021/07/02 11:36:01;;;;;;;8.30;7.57;;;23.80;99.90;;;;;;5032043;28;20455;-83
2021/07/02 11:38:31;;;;;;;9.17;7.10;;;23.40;99.90;;;;;;5029989;28;20459;-82
2021/07/02 11:41:04;;;;;;;7.50;6.70;;;23.40;99.90;;;;;;5036015;28;20260;-84
2021/07/02 11:43:33;;;;;;;7.20;6.30;;;23.40;99.90;;;;;;5034844;28;20474;-83
2021/07/02 11:46:10;;;;;;;7.97;6.30;;;23.10;99.90;;;;;;5032710;28;20555;-81
2021/07/02 11:48:41;;;;;;;9.93;7.73;;;23.30;99.90;;;;;;5032113;28;20465;-83
2021/07/02 11:51:13;;;;;;;8.93;7.23;;;23.10;99.90;;;;;;5025474;28;20463;-80
2021/07/02 11:53:53;;;;;;;8.03;6.90;;;23.20;99.90;;;;;;5030627;28;20452;-79
2021/07/02 11:56:22;;;;;;;7.33;5.90;;;23.30;99.90;;;;;;5029028;28;20817;-80
2021/07/02 11:58:59;;;;;;;7.40;6.60;;;23.40;99.90;;;;;;5030117;28;20444;-84
2021/07/02 12:01:37;;;;;;;6.50;5.90;;;23.40;99.90;;;;;;5029441;28;20527;-83
2021/07/02 12:04:05;;;;;;;8.90;5.73;;;23.60;99.90;;;;;;5026876;28;20487;-81
2021/07/02 12:06:33;;;;;;;7.13;6.43;;;23.70;99.90;;;;;;5027252;28;20463;-81
2021/07/02 12:09:07;;;;;;;7.47;6.67;;;23.90;99.90;;;;;;5027020;28;20431;-82
2021/07/02 12:11:39;;;;;;;9.57;7.00;;;24.10;99.90;;;;;;5029153;28;20486;-82
2021/07/02 12:14:08;;;;;;;7.43;6.73;;;24.70;99.90;;;;;;5030409;28;20437;-81
2021/07/02 12:16:37;;;;;;;6.97;6.27;;;25.00;99.90;;;;;;5033473;28;20485;-81
2021/07/02 12:19:06;;;;;;;8.80;6.60;;;25.90;99.90;;;;;;5048476;28;20444;-83
2021/07/02 12:21:33;;;;;;;6.43;5.83;;;27.00;99.90;;;;;;5031966;28;20523;-82
2021/07/02 12:24:01;;;;;;;7.53;6.77;;;;;;;;;;5028406;28;20456;-83
2021/07/02 12:26:29;;;;;;;7.03;6.43;;;27.00;99.90;;;;;;5027306;28;21191;-85
2021/07/02 12:29:13;;;;;;;7.30;6.10;;;26.20;99.90;;;;;;5033901;28;20518;-81
2021/07/02 12:31:41;;;;;;;7.47;6.67;;;25.70;99.90;;;;;;5037995;28;20585;-81
2021/07/02 12:34:12;;;;;;;9.33;7.60;;;25.60;99.90;;;;;;5036550;28;20946;-83
2021/07/02 12:36:58;;;;;;;9.10;7.53;;;25.30;99.90;;;;;;5032580;28;20460;-82
2021/07/02 12:39:30;;;;;;;7.50;6.70;;;24.60;99.90;;;;;;5036658;28;20435;-83
2021/07/02 12:42:01;;;;;;;7.17;6.47;;;24.70;99.90;;;;;;5019623;28;20565;-80
2021/07/02 12:44:28;;;;;;;7.63;6.93;;;24.40;99.90;;;;;;5019126;28;20436;-83
2021/07/02 12:46:54;;;;;;;7.73;6.37;;;25.50;99.90;;;;;;5030882;28;20467;-82
2021/07/02 12:49:29;;;;;;;11.73;6.70;;;26.50;99.90;;;;;;5034910;28;20439;-82
2021/07/02 12:54:56;;;;;;;7.10;6.40;;;26.80;99.90;;;;;;5025582;28;20514;-81
2021/07/02 12:57:22;;;;;;;11.87;7.10;;;27.80;99.90;;;;;;5036130;28;20956;-85
2021/07/02 12:59:53;;;;;;;8.83;6.60;;;28.30;99.90;;;;;;5031420;28;20435;-84
2021/07/02 13:02:31;;;;;;;7.90;7.10;;;29.20;99.00;;;;;;5023200;28;20230;-81